createdAt,value
2023-05-14T00:02:33.541Z,79.92
2023-05-14T00:05:36.168Z,79.85
2023-05-14T00:08:38.534Z,79.91
2023-05-14T00:11:41.379Z,79.35
2023-05-14T00:14:43.791Z,79.41
2023-05-14T00:17:46.503Z,78.94
2023-05-14T00:20:49.370Z,78.87
2023-05-14T00:23:51.750Z,78.59
2023-05-14T00:26:54.430Z,78.67
2023-05-14T00:29:56.942Z,78.61
2023-05-14T00:32:59.451Z,78.97
2023-05-14T00:36:01.912Z,78.18
2023-05-14T00:39:04.765Z,78.15
2023-05-14T00:42:07.403Z,77.91
2023-05-14T00:45:10.298Z,77.52
2023-05-14T00:48:13.984Z,78.01
2023-05-14T00:51:17.757Z,78.18
2023-05-14T00:54:21.163Z,78.11
2023-05-14T00:57:23.678Z,77.98
2023-05-14T01:00:27.690Z,77.52
2023-05-14T01:03:31.911Z,77.96
2023-05-14T01:07:00.077Z,77.12
2023-05-14T01:10:15.417Z,76.49
2023-05-14T01:13:56.056Z,76.12
2023-05-14T01:17:01.398Z,76.18
2023-05-14T01:20:04.485Z,75.94
2023-05-14T01:23:06.979Z,75.92
2023-05-14T01:26:09.638Z,75.40
2023-05-14T01:29:22.338Z,75.37
2023-05-14T01:32:26.005Z,75.31
2023-05-14T01:35:30.168Z,75.35
2023-05-14T01:38:34.163Z,75.11
2023-05-14T01:41:39.429Z,75.42
2023-05-14T01:44:42.480Z,75.57
2023-05-14T01:47:45.035Z,76.07
2023-05-14T01:50:47.636Z,76.29
2023-05-14T01:53:50.067Z,76.29
2023-05-14T01:56:52.559Z,75.99
2023-05-14T01:59:55.035Z,75.63
2023-05-14T02:02:57.536Z,75.52
2023-05-14T02:05:59.969Z,75.91
2023-05-14T02:09:04.320Z,76.64
2023-05-14T02:12:08.743Z,76.17
2023-05-14T02:15:11.533Z,76.25
2023-05-14T02:18:14.127Z,76.41
2023-05-14T02:21:16.618Z,76.70
2023-05-14T02:24:19.062Z,77.02
2023-05-14T02:27:21.885Z,77.10
2023-05-14T02:30:24.662Z,77.77
2023-05-14T02:33:28.217Z,77.77
2023-05-14T02:36:30.806Z,77.82
2023-05-14T02:39:33.485Z,77.87
2023-05-14T02:42:35.969Z,77.75
2023-05-14T02:45:38.394Z,77.75
2023-05-14T02:48:41.438Z,77.90
2023-05-14T02:51:44.153Z,78.22
2023-05-14T02:54:46.635Z,78.52
2023-05-14T02:57:49.168Z,78.49
2023-05-14T03:00:51.738Z,78.63
2023-05-14T03:03:54.544Z,78.79
2023-05-14T03:06:57.114Z,77.89
2023-05-14T03:10:00.693Z,78.19
2023-05-14T03:13:03.382Z,78.52
2023-05-14T03:16:06.857Z,78.13
2023-05-14T03:19:09.954Z,77.57
2023-05-14T03:22:12.669Z,77.97
2023-05-14T03:25:15.227Z,77.41
2023-05-14T03:28:18.343Z,77.54
2023-05-14T03:31:20.869Z,77.32
2023-05-14T03:34:23.510Z,77.12
2023-05-14T03:37:25.951Z,76.85
2023-05-14T03:40:28.390Z,76.55
2023-05-14T03:43:30.806Z,76.55
2023-05-14T03:46:33.315Z,76.13
2023-05-14T03:49:35.814Z,76.19
2023-05-14T03:52:38.631Z,76.40
2023-05-14T03:55:41.075Z,76.11
2023-05-14T03:58:46.812Z,76.04
2023-05-14T04:01:50.618Z,75.91
2023-05-14T04:04:53.087Z,75.53
2023-05-14T04:07:56.240Z,75.53
2023-05-14T04:10:58.698Z,75.46
2023-05-14T04:14:01.219Z,75.21
2023-05-14T04:17:04.644Z,74.88
2023-05-14T04:20:07.858Z,74.79
2023-05-14T04:23:10.427Z,74.83
2023-05-14T04:26:12.851Z,74.71
2023-05-14T04:29:15.336Z,75.05
2023-05-14T04:32:18.256Z,74.43
2023-05-14T04:35:23.319Z,74.29
2023-05-14T04:38:27.315Z,74.69
2023-05-14T04:41:29.825Z,74.25
2023-05-14T04:44:34.143Z,74.40
2023-05-14T04:47:36.733Z,74.36
2023-05-14T04:50:39.307Z,73.87
2023-05-14T04:53:41.694Z,74.36
2023-05-14T04:56:44.190Z,74.35
2023-05-14T04:59:46.752Z,74.78
2023-05-14T05:02:49.351Z,74.63
2023-05-14T05:05:52.121Z,74.57
2023-05-14T05:08:55.253Z,74.85
2023-05-14T05:11:57.872Z,74.09
2023-05-14T05:15:00.358Z,74.62
2023-05-14T05:18:02.958Z,74.34
2023-05-14T05:21:06.160Z,74.23
2023-05-14T05:24:08.942Z,74.00
2023-05-14T05:27:11.637Z,74.13
2023-05-14T05:30:14.449Z,73.93
2023-05-14T05:33:16.964Z,73.68
2023-05-14T05:36:20.399Z,73.47
2023-05-14T05:39:22.922Z,73.42
2023-05-14T05:42:26.104Z,73.48
2023-05-14T05:45:28.538Z,73.64
2023-05-14T05:48:31.103Z,74.29
2023-05-14T05:51:33.627Z,74.83
2023-05-14T05:54:36.190Z,74.53
2023-05-14T05:57:38.739Z,74.69
2023-05-14T06:00:41.793Z,74.44
2023-05-14T06:03:45.807Z,73.81
2023-05-14T06:06:50.158Z,74.23
2023-05-14T06:09:52.537Z,73.15
2023-05-14T06:12:54.912Z,73.64
2023-05-14T06:15:57.283Z,73.99
2023-05-14T06:18:59.807Z,74.36
2023-05-14T06:22:02.922Z,73.17
2023-05-14T06:25:05.683Z,73.96
2023-05-14T06:28:08.436Z,74.39
2023-05-14T06:31:10.916Z,74.90
2023-05-14T06:34:13.462Z,74.82
2023-05-14T06:37:15.968Z,75.54
2023-05-14T06:40:18.922Z,75.04
2023-05-14T06:43:21.428Z,75.27
2023-05-14T06:46:23.843Z,75.11
2023-05-14T06:49:26.437Z,74.94
2023-05-14T06:52:28.913Z,75.09
2023-05-14T06:55:31.365Z,74.50
2023-05-14T06:58:33.893Z,73.93
2023-05-14T07:01:36.366Z,74.89
2023-05-14T07:04:38.839Z,75.27
2023-05-14T07:07:41.361Z,74.41
2023-05-14T07:10:43.820Z,72.40
2023-05-14T07:13:46.188Z,71.67
2023-05-14T07:16:48.806Z,72.63
2023-05-14T07:19:51.477Z,70.73
2023-05-14T07:22:54.107Z,68.60
2023-05-14T07:25:56.604Z,67.26
2023-05-14T07:28:59.050Z,66.24
2023-05-14T07:32:02.075Z,65.63
2023-05-14T07:35:04.876Z,64.83
2023-05-14T07:38:07.279Z,64.37
2023-05-14T07:41:11.447Z,63.95
2023-05-14T07:44:13.934Z,63.80
2023-05-14T07:47:16.495Z,63.61
2023-05-14T07:50:19.178Z,62.56
2023-05-14T07:53:23.509Z,61.97
2023-05-14T07:56:26.116Z,62.48
2023-05-14T07:59:28.524Z,61.97
2023-05-14T08:02:31.160Z,61.13
2023-05-14T08:05:33.718Z,60.68
2023-05-14T08:08:36.381Z,61.18
2023-05-14T08:11:39.276Z,60.75
2023-05-14T08:14:41.731Z,60.65
2023-05-14T08:17:44.203Z,61.20
2023-05-14T08:20:47.076Z,61.48
2023-05-14T08:23:49.495Z,61.70
2023-05-14T08:26:52.453Z,61.49
2023-05-14T08:29:54.925Z,61.20
2023-05-14T08:32:58.656Z,61.93
2023-05-14T08:36:01.653Z,62.86
2023-05-14T08:39:04.027Z,63.11
2023-05-14T08:42:08.321Z,64.15
2023-05-14T08:45:34.096Z,63.40
2023-05-14T08:48:37.868Z,64.11
2023-05-14T08:51:40.921Z,64.93
2023-05-14T08:54:44.189Z,65.38
2023-05-14T08:57:46.664Z,66.14
2023-05-14T09:00:49.251Z,67.13
2023-05-14T09:03:53.983Z,66.87
2023-05-14T09:06:56.490Z,67.21
2023-05-14T09:09:59.514Z,66.83
2023-05-14T09:13:02.005Z,68.35
2023-05-14T09:16:04.714Z,68.85
2023-05-14T09:19:07.342Z,69.77
2023-05-14T09:22:12.331Z,69.61
2023-05-14T09:25:15.082Z,69.49
2023-05-14T09:28:19.003Z,69.25
2023-05-14T09:31:22.767Z,69.83
2023-05-14T09:34:32.608Z,69.64
2023-05-14T09:37:36.781Z,69.76
2023-05-14T09:40:39.339Z,69.04
2023-05-14T09:43:42.694Z,69.50
2023-05-14T09:46:48.978Z,70.26
2023-05-14T09:49:52.369Z,70.77
2023-05-14T09:52:56.180Z,71.45
2023-05-14T09:55:58.847Z,71.76
2023-05-14T09:59:01.316Z,72.44
2023-05-14T10:02:05.826Z,72.57
2023-05-14T10:05:09.012Z,73.67
2023-05-14T10:08:24.680Z,72.44
2023-05-14T10:11:32.790Z,72.65
2023-05-14T10:14:47.312Z,72.66
2023-05-14T10:17:56.156Z,71.93
2023-05-14T10:21:06.370Z,72.19
2023-05-14T10:24:10.020Z,72.48
2023-05-14T10:27:12.638Z,72.10
2023-05-14T10:30:15.278Z,71.97
2023-05-14T10:33:18.848Z,71.95
2023-05-14T10:36:22.382Z,71.04
2023-05-14T10:39:40.832Z,71.31
2023-05-14T10:42:43.816Z,71.95
2023-05-14T10:45:46.296Z,71.42
2023-05-14T10:48:49.878Z,71.91
2023-05-14T10:51:53.767Z,72.69
2023-05-14T10:55:03.170Z,73.95
2023-05-14T10:58:06.420Z,74.88
2023-05-14T11:01:12.841Z,74.49
2023-05-14T11:04:19.732Z,74.04
2023-05-14T11:07:25.437Z,74.45
2023-05-14T11:10:30.105Z,74.18
2023-05-14T11:13:34.852Z,74.33
2023-05-14T11:16:37.854Z,73.42
2023-05-14T11:19:43.769Z,74.52
2023-05-14T11:22:48.128Z,74.01
2023-05-14T11:25:52.921Z,74.47
2023-05-14T11:28:55.756Z,74.71
2023-05-14T11:31:58.289Z,75.21
2023-05-14T11:35:00.843Z,75.98
2023-05-14T11:38:03.367Z,76.99
2023-05-14T11:41:06.359Z,76.88
2023-05-14T11:44:10.864Z,78.59
2023-05-14T11:47:13.331Z,77.84
2023-05-14T11:50:16.655Z,78.75
2023-05-14T11:53:20.156Z,78.05
2023-05-14T11:56:22.633Z,77.72
2023-05-14T11:59:26.092Z,77.05
2023-05-14T12:02:29.557Z,76.21
2023-05-14T12:05:32.245Z,74.05
2023-05-14T12:08:34.652Z,75.38
2023-05-14T12:11:37.765Z,75.76
2023-05-14T12:14:42.762Z,76.72
2023-05-14T12:17:54.160Z,75.44
2023-05-14T12:21:01.844Z,76.97
2023-05-14T12:24:04.606Z,77.87
2023-05-14T12:27:09.797Z,78.58
2023-05-14T12:30:21.207Z,80.34
2023-05-14T12:33:26.580Z,80.06
2023-05-14T12:36:29.498Z,79.00
2023-05-14T12:39:33.949Z,79.35
2023-05-14T12:42:36.786Z,79.24
2023-05-14T12:45:39.258Z,80.00
2023-05-14T12:48:41.724Z,79.06
2023-05-14T12:51:44.234Z,80.02
2023-05-14T12:54:46.977Z,79.62
2023-05-14T12:57:49.511Z,79.57
2023-05-14T13:00:52.192Z,79.32
2023-05-14T13:03:55.770Z,80.18
2023-05-14T13:06:58.335Z,80.56
2023-05-14T13:10:00.778Z,80.73
2023-05-14T13:13:03.319Z,79.88
2023-05-14T13:16:06.276Z,80.44
2023-05-14T13:19:08.816Z,81.39
2023-05-14T13:22:11.199Z,80.86
2023-05-14T13:25:13.667Z,81.84
2023-05-14T13:28:16.168Z,82.09
2023-05-14T13:31:18.651Z,83.22
2023-05-14T13:34:21.257Z,84.48
2023-05-14T13:37:25.822Z,84.86
2023-05-14T13:40:28.364Z,85.53
2023-05-14T13:43:35.173Z,85.41
2023-05-14T13:46:37.800Z,85.25
2023-05-14T13:49:40.754Z,85.23
2023-05-14T13:52:43.188Z,84.37
2023-05-14T13:55:46.718Z,85.74
2023-05-14T13:58:51.588Z,85.82
2023-05-14T14:01:54.385Z,86.12
2023-05-14T14:04:56.851Z,86.08
2023-05-14T14:08:04.509Z,86.50
2023-05-14T14:11:22.141Z,86.43
2023-05-14T14:14:24.692Z,86.27
2023-05-14T14:17:27.230Z,85.58
2023-05-14T14:20:31.142Z,86.43
2023-05-14T14:23:33.659Z,84.78
2023-05-14T14:26:36.168Z,84.76
2023-05-14T14:29:38.757Z,85.63
2023-05-14T14:32:48.539Z,86.06
2023-05-14T14:35:51.722Z,85.77
2023-05-14T14:38:54.864Z,86.14
2023-05-14T14:41:57.414Z,84.97
2023-05-14T14:44:59.913Z,85.85
2023-05-14T14:48:34.389Z,86.25
2023-05-14T14:51:36.837Z,86.67
2023-05-14T14:54:39.256Z,87.07
2023-05-14T14:57:41.817Z,86.82
2023-05-14T15:00:45.648Z,86.17
2023-05-14T15:03:48.516Z,86.55
2023-05-14T15:06:51.421Z,86.08
2023-05-14T15:09:53.896Z,85.68
2023-05-14T15:12:59.884Z,85.07
2023-05-14T15:16:02.389Z,85.88
2023-05-14T15:19:04.884Z,85.82
2023-05-14T15:22:07.485Z,86.17
2023-05-14T15:25:10.178Z,86.03
2023-05-14T15:28:12.611Z,86.63
2023-05-14T15:31:15.786Z,86.99
2023-05-14T15:34:18.271Z,87.66
2023-05-14T15:37:20.761Z,87.91
2023-05-14T15:40:23.464Z,88.34
2023-05-14T15:43:26.462Z,88.50
2023-05-14T15:46:29.055Z,88.32
2023-05-14T15:49:31.588Z,86.78
2023-05-14T15:52:35.066Z,86.89
2023-05-14T15:55:37.550Z,87.47
2023-05-14T15:58:40.043Z,87.90
2023-05-14T16:01:42.516Z,87.97
2023-05-14T16:04:49.567Z,88.11
2023-05-14T16:07:52.563Z,87.85
2023-05-14T16:10:55.018Z,87.95
2023-05-14T16:13:58.486Z,88.33
2023-05-14T16:17:01.869Z,88.74
2023-05-14T16:20:05.213Z,88.40
2023-05-14T16:23:09.007Z,89.11
2023-05-14T16:26:11.712Z,89.34
2023-05-14T16:29:14.280Z,89.15
2023-05-14T16:32:16.945Z,89.49
2023-05-14T16:35:19.521Z,89.68
2023-05-14T16:38:22.002Z,89.01
2023-05-14T16:41:24.502Z,89.49
2023-05-14T16:44:26.993Z,89.79
2023-05-14T16:47:29.594Z,90.12
2023-05-14T16:50:32.096Z,89.51
2023-05-14T16:53:34.567Z,89.81
2023-05-14T16:56:37.069Z,90.14
2023-05-14T16:59:39.482Z,90.34
2023-05-14T17:02:42.373Z,89.91
2023-05-14T17:05:44.877Z,90.00
2023-05-14T17:08:47.715Z,89.91
2023-05-14T17:11:50.874Z,89.94
2023-05-14T17:14:53.363Z,89.74
2023-05-14T17:17:56.073Z,89.45
2023-05-14T17:20:58.758Z,89.60
2023-05-14T17:24:01.126Z,89.42
2023-05-14T17:27:03.837Z,89.51
2023-05-14T17:30:07.025Z,89.49
2023-05-14T17:33:09.783Z,89.62
2023-05-14T17:36:12.500Z,89.20
2023-05-14T17:39:15.102Z,89.46
2023-05-14T17:42:18.003Z,89.92
2023-05-14T17:45:21.030Z,89.76
2023-05-14T17:48:24.130Z,89.49
2023-05-14T17:51:26.951Z,90.11
2023-05-14T17:54:29.921Z,90.51
2023-05-14T17:57:32.501Z,90.55
2023-05-14T18:00:35.277Z,90.30
2023-05-14T18:03:38.503Z,91.42
2023-05-14T18:06:41.448Z,91.56
2023-05-14T18:09:44.390Z,91.03
2023-05-14T18:12:47.327Z,90.83
2023-05-14T18:15:54.168Z,91.19
2023-05-14T18:18:57.884Z,91.09
2023-05-14T18:22:00.523Z,90.82
2023-05-14T18:25:04.011Z,90.46
2023-05-14T18:28:09.421Z,91.11
2023-05-14T18:31:12.032Z,91.09
2023-05-14T18:34:14.816Z,91.05
2023-05-14T18:37:17.568Z,91.60
2023-05-14T18:40:20.281Z,91.05
2023-05-14T18:43:22.813Z,90.74
2023-05-14T18:46:25.921Z,90.69
2023-05-14T18:49:28.510Z,91.16
2023-05-14T18:52:32.433Z,91.20
2023-05-14T18:55:37.108Z,91.03
2023-05-14T18:58:39.938Z,90.36
2023-05-14T19:01:42.473Z,90.64
2023-05-14T19:04:52.398Z,90.72
2023-05-14T19:07:56.856Z,91.71
2023-05-14T19:10:59.723Z,91.56
2023-05-14T19:14:03.143Z,91.47
2023-05-14T19:17:06.155Z,91.81
2023-05-14T19:20:09.436Z,92.39
2023-05-14T19:23:12.106Z,92.43
2023-05-14T19:26:16.054Z,92.34
2023-05-14T19:29:18.572Z,92.16
2023-05-14T19:32:21.037Z,92.23
2023-05-14T19:35:23.659Z,92.40
2023-05-14T19:38:26.498Z,92.54
2023-05-14T19:41:29.210Z,92.88
2023-05-14T19:44:32.016Z,92.07
2023-05-14T19:47:34.941Z,91.89
2023-05-14T19:50:37.364Z,92.71
2023-05-14T19:53:40.012Z,93.46
2023-05-14T19:56:42.446Z,93.82
2023-05-14T19:59:45.298Z,93.86
2023-05-14T20:02:48.036Z,93.61
2023-05-14T20:05:51.401Z,92.26
2023-05-14T20:08:55.216Z,93.06
2023-05-14T20:11:57.867Z,93.48
2023-05-14T20:15:00.538Z,93.72
2023-05-14T20:18:03.120Z,93.93
2023-05-14T20:21:05.669Z,94.09
2023-05-14T20:24:08.270Z,94.36
2023-05-14T20:27:11.925Z,94.76
2023-05-14T20:30:14.551Z,94.94
2023-05-14T20:33:17.459Z,94.73
2023-05-14T20:36:20.240Z,94.61
2023-05-14T20:39:22.686Z,94.54
2023-05-14T20:42:25.423Z,95.02
2023-05-14T20:45:27.979Z,95.12
2023-05-14T20:48:30.687Z,95.09
2023-05-14T20:51:33.336Z,95.65
2023-05-14T20:54:35.737Z,95.15
2023-05-14T20:57:38.254Z,95.43
2023-05-14T21:00:40.700Z,95.07
2023-05-14T21:03:44.110Z,95.39
2023-05-14T21:06:46.921Z,95.17
2023-05-14T21:09:52.597Z,95.30
2023-05-14T21:12:55.261Z,95.09
2023-05-14T21:15:57.829Z,95.31
2023-05-14T21:19:00.526Z,95.19
2023-05-14T21:22:03.092Z,95.36
2023-05-14T21:25:05.924Z,95.27
2023-05-14T21:28:09.747Z,95.23
2023-05-14T21:31:12.178Z,95.26
2023-05-14T21:34:14.886Z,95.37
2023-05-14T21:37:17.376Z,95.81
2023-05-14T21:40:19.829Z,95.48
2023-05-14T21:43:22.256Z,95.79
2023-05-14T21:46:25.746Z,95.44
2023-05-14T21:49:28.218Z,94.78
2023-05-14T21:52:30.769Z,94.27
2023-05-14T21:55:33.638Z,94.45
2023-05-14T21:58:36.505Z,94.68
2023-05-14T22:01:55.524Z,94.04
2023-05-14T22:05:01.506Z,94.07
2023-05-14T22:08:04.280Z,93.89
2023-05-14T22:11:06.681Z,93.71
2023-05-14T22:14:09.142Z,93.57
2023-05-14T22:17:12.750Z,93.71
2023-05-14T22:20:15.148Z,93.93
2023-05-14T22:23:17.523Z,93.86
2023-05-14T22:26:21.588Z,93.91
2023-05-14T22:29:23.996Z,93.46
2023-05-14T22:32:26.729Z,93.39
2023-05-14T22:35:29.115Z,93.33
2023-05-14T22:38:31.788Z,93.32
2023-05-14T22:41:34.193Z,92.86
2023-05-14T22:44:37.137Z,93.69
2023-05-14T22:47:39.567Z,93.74
2023-05-14T22:50:42.065Z,93.68
2023-05-14T22:53:44.541Z,93.56
2023-05-14T22:56:47.459Z,93.04
2023-05-14T22:59:49.875Z,93.48
2023-05-14T23:02:52.359Z,93.28
2023-05-14T23:05:54.863Z,93.67
2023-05-14T23:08:57.691Z,93.55
2023-05-14T23:12:00.237Z,93.72
2023-05-14T23:15:02.979Z,94.10
2023-05-14T23:18:05.737Z,93.71
2023-05-14T23:21:08.275Z,94.33
2023-05-14T23:24:10.697Z,94.18
2023-05-14T23:27:13.133Z,94.77
2023-05-14T23:30:15.737Z,95.14
2023-05-14T23:33:18.929Z,95.36
2023-05-14T23:36:21.360Z,95.86
2023-05-14T23:39:23.952Z,95.77
2023-05-14T23:42:26.352Z,95.74
2023-05-14T23:45:29.469Z,95.50
2023-05-14T23:48:32.253Z,95.63
2023-05-14T23:51:34.707Z,95.82
2023-05-14T23:54:37.204Z,95.79
2023-05-14T23:57:40.026Z,95.71
